Bladen County Hospital, NC

2:27 AM EDT on September 02, 2014 (GMT -0400)
Lumberton Municipal | Change Station
CLOSE
Current Station
Airport
Location: Lumberton,
Elevation: 125 ft
Nearby Weather Stations

Elev 125 ft 34.61 °N, 79.06 °W | Updated 33 minutes ago

Clear
Clear
78 °F
Feels Like 78 °F
N
6
Wind Variable Wind from SW

Today
High -- | Low -- °F
--% Chance of Precip.
Yesterday
High -- | Low -- °F
Precip. -- in
6:48 AM 7:39 PM
Waxing Crescent, 48% visible
Pressure 30.06 in
Visibility 10.0 miles
Clouds Clear
Dew Point 75 °F
Humidity 90%
Rainfall 0.00 in
Snow Depth Not available.
UV 0 out of 12
Pollen 8.70 out of 12
Air Quality Not available.
Flu Activity Not available.
METAR KLBT 020554Z AUTO 22005KT 10SM CLR 26/24 A3007 RMK AO2 SLP180 T02560239 10289 20256 58004

More Conditions Fewer Conditions

Pressure 30.06 in
Visibility 10.0 miles
Clouds Clear
Dew Point 75 °F
Humidity 90%
Rainfall 0.00 in
Snow Depth Not available.
UV 0 out of 12
Pollen 8.70 out of 12
Air Quality Not available.
Flu Activity Not available.
METAR KLBT 020554Z AUTO 22005KT 10SM CLR 26/24 A3007 RMK AO2 SLP180 T02560239 10289 20256 58004

More Conditions Fewer Conditions

10-Day Weather Forecast

Almanac

Astronomy

Sep. 02, 2014 Rise Set
Actual Time 6:48 AM EDT 7:39 PM EDT
Civil Twilight 6:22 AM EDT 8:05 PM EDT
Nautical Twilight 5:52 AM EDT 8:35 PM EDT
Astronomical Twilight 5:20 AM EDT 9:06 PM EDT
Moon 2:13 PM EDT No Moon Set
Length of Visible Light 13h 42m
Length of Day
12h 51m
Tomorrow will be 2m 5s shorter.
Waxing Crescent, 48% of the Moon is Illuminated
Today
Waxing Crescent
Sep 2
First Quarter
Sep 8
Full
Sep 15
Last Quarter
Sep 24
New

Today's Extremes

State Highs State Lows

Community

WunderPhotos

Upload Photos

1,749,582 photos uploaded!

WunderBlogs® & News

Nearby

Snow Depth

Station Depth Elevation
No new snow has been reported.

Earthquake Activity

City Distance Mag. Time & Date
No recent earthquake activity has been reported nearby.
Minimum magnitude displayed is 2.5.

Coastal Water Temperatures

Place Temperature
No Stations Reporting

Nearby Weather Stations